sensor_id;sensor_type;location;lat;lon;timestamp;P1;durP1;ratioP1;P2;durP2;ratioP2
71464;SDS011;59274;49.874;9.154;2023-10-19T00:02:04;7.00;;;2.40;;
71464;SDS011;59274;49.874;9.154;2023-10-19T00:04:30;4.00;;;2.47;;
71464;SDS011;59274;49.874;9.154;2023-10-19T00:07:03;4.50;;;2.22;;
71464;SDS011;59274;49.874;9.154;2023-10-19T00:09:31;4.45;;;2.50;;
71464;SDS011;59274;49.874;9.154;2023-10-19T00:12:02;7.15;;;3.13;;
71464;SDS011;59274;49.874;9.154;2023-10-19T00:14:29;7.40;;;2.77;;
71464;SDS011;59274;49.874;9.154;2023-10-19T00:16:57;4.75;;;2.22;;
71464;SDS011;59274;49.874;9.154;2023-10-19T00:19:26;4.65;;;2.72;;
71464;SDS011;59274;49.874;9.154;2023-10-19T00:21:53;3.83;;;2.17;;
71464;SDS011;59274;49.874;9.154;2023-10-19T00:24:33;3.53;;;1.77;;
71464;SDS011;59274;49.874;9.154;2023-10-19T00:26:59;5.80;;;2.90;;
71464;SDS011;59274;49.874;9.154;2023-10-19T00:29:31;4.82;;;2.33;;
71464;SDS011;59274;49.874;9.154;2023-10-19T00:31:58;4.70;;;2.20;;
71464;SDS011;59274;49.874;9.154;2023-10-19T00:34:25;3.47;;;1.73;;
71464;SDS011;59274;49.874;9.154;2023-10-19T00:36:54;4.97;;;2.57;;
71464;SDS011;59274;49.874;9.154;2023-10-19T00:39:21;5.47;;;2.83;;
71464;SDS011;59274;49.874;9.154;2023-10-19T00:41:47;3.97;;;2.15;;
71464;SDS011;59274;49.874;9.154;2023-10-19T00:44:13;5.43;;;2.90;;
71464;SDS011;59274;49.874;9.154;2023-10-19T00:47:01;5.03;;;2.67;;
71464;SDS011;59274;49.874;9.154;2023-10-19T00:49:32;7.20;;;2.95;;
71464;SDS011;59274;49.874;9.154;2023-10-19T00:51:58;4.93;;;2.95;;
71464;SDS011;59274;49.874;9.154;2023-10-19T00:54:34;4.70;;;2.60;;
71464;SDS011;59274;49.874;9.154;2023-10-19T00:57:02;5.05;;;2.45;;
71464;SDS011;59274;49.874;9.154;2023-10-19T00:59:32;5.25;;;2.50;;
71464;SDS011;59274;49.874;9.154;2023-10-19T01:02:08;6.72;;;2.80;;
71464;SDS011;59274;49.874;9.154;2023-10-19T01:04:45;5.22;;;2.40;;
71464;SDS011;59274;49.874;9.154;2023-10-19T01:07:15;6.83;;;2.90;;
71464;SDS011;59274;49.874;9.154;2023-10-19T01:09:48;6.38;;;3.30;;
71464;SDS011;59274;49.874;9.154;2023-10-19T01:12:19;6.15;;;3.55;;
71464;SDS011;59274;49.874;9.154;2023-10-19T01:17:38;6.95;;;2.85;;
71464;SDS011;59274;49.874;9.154;2023-10-19T01:20:07;5.30;;;3.20;;
71464;SDS011;59274;49.874;9.154;2023-10-19T01:22:51;7.88;;;3.15;;
71464;SDS011;59274;49.874;9.154;2023-10-19T01:25:46;5.97;;;3.35;;
71464;SDS011;59274;49.874;9.154;2023-10-19T01:28:19;7.85;;;3.65;;
71464;SDS011;59274;49.874;9.154;2023-10-19T01:30:46;7.28;;;3.33;;
71464;SDS011;59274;49.874;9.154;2023-10-19T01:33:16;6.50;;;3.07;;
71464;SDS011;59274;49.874;9.154;2023-10-19T01:35:48;6.40;;;3.00;;
71464;SDS011;59274;49.874;9.154;2023-10-19T01:38:35;9.38;;;3.17;;
71464;SDS011;59274;49.874;9.154;2023-10-19T01:41:01;7.10;;;3.00;;
71464;SDS011;59274;49.874;9.154;2023-10-19T01:43:32;6.30;;;3.10;;
71464;SDS011;59274;49.874;9.154;2023-10-19T01:45:58;7.07;;;3.13;;
71464;SDS011;59274;49.874;9.154;2023-10-19T01:48:36;7.35;;;3.15;;
71464;SDS011;59274;49.874;9.154;2023-10-19T01:51:04;6.22;;;2.70;;
71464;SDS011;59274;49.874;9.154;2023-10-19T01:53:33;6.00;;;2.90;;
71464;SDS011;59274;49.874;9.154;2023-10-19T01:56:01;4.88;;;2.50;;
71464;SDS011;59274;49.874;9.154;2023-10-19T01:58:31;5.40;;;3.00;;
71464;SDS011;59274;49.874;9.154;2023-10-19T02:01:01;5.90;;;2.67;;
71464;SDS011;59274;49.874;9.154;2023-10-19T02:03:42;5.07;;;2.22;;
71464;SDS011;59274;49.874;9.154;2023-10-19T02:06:12;4.93;;;2.15;;
71464;SDS011;59274;49.874;9.154;2023-10-19T02:11:21;5.63;;;3.10;;
71464;SDS011;59274;49.874;9.154;2023-10-19T02:13:49;6.50;;;3.05;;
71464;SDS011;59274;49.874;9.154;2023-10-19T02:16:18;5.88;;;3.25;;
71464;SDS011;59274;49.874;9.154;2023-10-19T02:18:48;3.85;;;2.20;;
71464;SDS011;59274;49.874;9.154;2023-10-19T02:21:14;5.75;;;2.90;;
71464;SDS011;59274;49.874;9.154;2023-10-19T02:23:44;6.27;;;2.93;;
71464;SDS011;59274;49.874;9.154;2023-10-19T02:26:09;6.80;;;2.40;;
71464;SDS011;59274;49.874;9.154;2023-10-19T02:28:39;4.93;;;2.43;;
71464;SDS011;59274;49.874;9.154;2023-10-19T02:31:05;3.70;;;2.28;;
71464;SDS011;59274;49.874;9.154;2023-10-19T02:34:00;4.65;;;2.38;;
71464;SDS011;59274;49.874;9.154;2023-10-19T02:36:29;5.40;;;2.87;;
71464;SDS011;59274;49.874;9.154;2023-10-19T02:38:56;6.45;;;2.70;;
71464;SDS011;59274;49.874;9.154;2023-10-19T02:41:25;5.95;;;2.97;;
71464;SDS011;59274;49.874;9.154;2023-10-19T02:43:54;7.90;;;3.05;;
71464;SDS011;59274;49.874;9.154;2023-10-19T02:46:28;5.75;;;3.28;;
71464;SDS011;59274;49.874;9.154;2023-10-19T02:48:54;7.00;;;2.57;;
71464;SDS011;59274;49.874;9.154;2023-10-19T02:51:19;5.25;;;2.45;;
71464;SDS011;59274;49.874;9.154;2023-10-19T02:53:45;6.47;;;3.37;;
71464;SDS011;59274;49.874;9.154;2023-10-19T02:56:11;5.97;;;2.90;;
71464;SDS011;59274;49.874;9.154;2023-10-19T02:58:41;6.78;;;2.65;;
71464;SDS011;59274;49.874;9.154;2023-10-19T03:01:14;6.47;;;3.35;;
71464;SDS011;59274;49.874;9.154;2023-10-19T03:03:54;7.72;;;2.78;;
71464;SDS011;59274;49.874;9.154;2023-10-19T03:06:24;7.28;;;2.95;;
71464;SDS011;59274;49.874;9.154;2023-10-19T03:08:50;6.27;;;3.00;;
71464;SDS011;59274;49.874;9.154;2023-10-19T03:11:29;5.25;;;3.03;;
71464;SDS011;59274;49.874;9.154;2023-10-19T03:13:58;6.43;;;2.90;;
71464;SDS011;59274;49.874;9.154;2023-10-19T03:16:24;4.37;;;2.30;;
71464;SDS011;59274;49.874;9.154;2023-10-19T03:18:50;4.67;;;2.50;;
71464;SDS011;59274;49.874;9.154;2023-10-19T03:21:18;6.53;;;2.90;;
71464;SDS011;59274;49.874;9.154;2023-10-19T03:23:44;5.95;;;3.05;;
71464;SDS011;59274;49.874;9.154;2023-10-19T03:26:09;6.23;;;2.90;;
71464;SDS011;59274;49.874;9.154;2023-10-19T03:28:54;7.25;;;3.63;;
71464;SDS011;59274;49.874;9.154;2023-10-19T03:31:23;4.10;;;2.63;;
71464;SDS011;59274;49.874;9.154;2023-10-19T03:33:52;4.93;;;2.73;;
71464;SDS011;59274;49.874;9.154;2023-10-19T03:36:23;5.80;;;2.63;;
71464;SDS011;59274;49.874;9.154;2023-10-19T03:38:50;6.60;;;2.95;;
71464;SDS011;59274;49.874;9.154;2023-10-19T03:41:17;6.00;;;2.63;;
71464;SDS011;59274;49.874;9.154;2023-10-19T03:43:47;5.70;;;3.22;;
71464;SDS011;59274;49.874;9.154;2023-10-19T03:46:14;5.97;;;2.57;;
71464;SDS011;59274;49.874;9.154;2023-10-19T03:48:47;5.07;;;2.55;;
71464;SDS011;59274;49.874;9.154;2023-10-19T03:51:13;4.97;;;2.70;;
71464;SDS011;59274;49.874;9.154;2023-10-19T03:53:39;4.67;;;2.73;;
71464;SDS011;59274;49.874;9.154;2023-10-19T03:56:09;4.65;;;2.30;;
71464;SDS011;59274;49.874;9.154;2023-10-19T03:58:36;12.00;;;2.58;;
71464;SDS011;59274;49.874;9.154;2023-10-19T04:01:04;6.68;;;3.22;;
71464;SDS011;59274;49.874;9.154;2023-10-19T04:03:30;7.82;;;3.17;;
71464;SDS011;59274;49.874;9.154;2023-10-19T04:05:56;7.67;;;3.57;;
71464;SDS011;59274;49.874;9.154;2023-10-19T04:08:25;6.25;;;2.78;;
71464;SDS011;59274;49.874;9.154;2023-10-19T04:10:51;8.70;;;3.83;;
71464;SDS011;59274;49.874;9.154;2023-10-19T04:13:35;5.20;;;3.10;;
71464;SDS011;59274;49.874;9.154;2023-10-19T04:16:01;7.53;;;3.30;;
71464;SDS011;59274;49.874;9.154;2023-10-19T04:18:27;8.20;;;2.97;;
71464;SDS011;59274;49.874;9.154;2023-10-19T04:20:52;7.10;;;3.40;;
71464;SDS011;59274;49.874;9.154;2023-10-19T04:23:18;8.07;;;3.97;;
71464;SDS011;59274;49.874;9.154;2023-10-19T04:25:46;7.90;;;3.05;;
71464;SDS011;59274;49.874;9.154;2023-10-19T04:28:11;6.53;;;3.03;;
71464;SDS011;59274;49.874;9.154;2023-10-19T04:30:39;5.93;;;2.87;;
71464;SDS011;59274;49.874;9.154;2023-10-19T04:33:05;6.93;;;3.58;;
71464;SDS011;59274;49.874;9.154;2023-10-19T04:35:34;7.55;;;3.88;;
71464;SDS011;59274;49.874;9.154;2023-10-19T04:38:04;7.95;;;3.45;;
71464;SDS011;59274;49.874;9.154;2023-10-19T04:40:33;10.00;;;3.85;;
71464;SDS011;59274;49.874;9.154;2023-10-19T04:42:58;6.23;;;2.73;;
71464;SDS011;59274;49.874;9.154;2023-10-19T04:45:26;7.38;;;4.07;;
71464;SDS011;59274;49.874;9.154;2023-10-19T04:47:52;7.87;;;3.90;;
71464;SDS011;59274;49.874;9.154;2023-10-19T04:50:18;7.82;;;4.10;;
71464;SDS011;59274;49.874;9.154;2023-10-19T04:52:44;8.47;;;4.33;;
71464;SDS011;59274;49.874;9.154;2023-10-19T04:55:09;8.07;;;3.38;;
71464;SDS011;59274;49.874;9.154;2023-10-19T04:57:34;7.60;;;3.87;;
71464;SDS011;59274;49.874;9.154;2023-10-19T05:00:00;9.67;;;4.67;;
71464;SDS011;59274;49.874;9.154;2023-10-19T05:02:25;9.98;;;3.80;;
71464;SDS011;59274;49.874;9.154;2023-10-19T05:04:51;7.83;;;3.70;;
71464;SDS011;59274;49.874;9.154;2023-10-19T05:07:16;7.23;;;3.87;;
71464;SDS011;59274;49.874;9.154;2023-10-19T05:09:42;10.30;;;3.77;;
71464;SDS011;59274;49.874;9.154;2023-10-19T05:12:08;5.43;;;2.88;;
71464;SDS011;59274;49.874;9.154;2023-10-19T05:14:35;6.13;;;3.17;;
71464;SDS011;59274;49.874;9.154;2023-10-19T05:17:04;5.60;;;2.80;;
71464;SDS011;59274;49.874;9.154;2023-10-19T05:19:34;7.07;;;2.83;;
71464;SDS011;59274;49.874;9.154;2023-10-19T05:22:01;6.13;;;2.63;;
71464;SDS011;59274;49.874;9.154;2023-10-19T05:24:28;5.60;;;2.65;;
71464;SDS011;59274;49.874;9.154;2023-10-19T05:26:55;6.30;;;3.22;;
71464;SDS011;59274;49.874;9.154;2023-10-19T05:29:20;5.83;;;2.60;;
71464;SDS011;59274;49.874;9.154;2023-10-19T05:31:46;8.13;;;3.40;;
71464;SDS011;59274;49.874;9.154;2023-10-19T05:34:12;13.47;;;4.10;;
71464;SDS011;59274;49.874;9.154;2023-10-19T05:36:38;7.32;;;3.42;;
71464;SDS011;59274;49.874;9.154;2023-10-19T05:39:04;5.63;;;3.08;;
71464;SDS011;59274;49.874;9.154;2023-10-19T05:41:32;7.70;;;3.33;;
71464;SDS011;59274;49.874;9.154;2023-10-19T05:43:59;7.97;;;2.85;;
71464;SDS011;59274;49.874;9.154;2023-10-19T05:46:24;5.93;;;3.38;;
71464;SDS011;59274;49.874;9.154;2023-10-19T05:48:50;6.63;;;2.83;;
71464;SDS011;59274;49.874;9.154;2023-10-19T05:51:17;5.80;;;3.08;;
71464;SDS011;59274;49.874;9.154;2023-10-19T05:53:43;5.70;;;3.40;;
71464;SDS011;59274;49.874;9.154;2023-10-19T05:56:09;8.02;;;3.95;;
71464;SDS011;59274;49.874;9.154;2023-10-19T05:58:37;7.60;;;3.95;;
71464;SDS011;59274;49.874;9.154;2023-10-19T06:01:03;6.77;;;3.10;;
71464;SDS011;59274;49.874;9.154;2023-10-19T06:03:28;7.57;;;3.57;;
71464;SDS011;59274;49.874;9.154;2023-10-19T06:05:54;6.40;;;3.38;;
71464;SDS011;59274;49.874;9.154;2023-10-19T06:08:24;8.23;;;3.35;;
71464;SDS011;59274;49.874;9.154;2023-10-19T06:10:53;6.93;;;3.58;;
71464;SDS011;59274;49.874;9.154;2023-10-19T06:13:18;8.65;;;3.40;;
71464;SDS011;59274;49.874;9.154;2023-10-19T06:15:45;8.05;;;4.25;;
71464;SDS011;59274;49.874;9.154;2023-10-19T06:18:10;9.27;;;4.60;;
71464;SDS011;59274;49.874;9.154;2023-10-19T06:20:36;7.93;;;3.53;;
71464;SDS011;59274;49.874;9.154;2023-10-19T06:23:02;7.18;;;3.70;;
71464;SDS011;59274;49.874;9.154;2023-10-19T06:25:32;7.88;;;4.18;;
71464;SDS011;59274;49.874;9.154;2023-10-19T06:28:00;8.27;;;3.87;;
71464;SDS011;59274;49.874;9.154;2023-10-19T06:30:26;5.90;;;3.38;;
71464;SDS011;59274;49.874;9.154;2023-10-19T06:32:53;9.45;;;3.72;;
71464;SDS011;59274;49.874;9.154;2023-10-19T06:35:20;7.22;;;3.33;;
71464;SDS011;59274;49.874;9.154;2023-10-19T06:37:47;7.82;;;3.10;;
71464;SDS011;59274;49.874;9.154;2023-10-19T06:40:13;7.47;;;3.37;;
71464;SDS011;59274;49.874;9.154;2023-10-19T06:42:41;10.43;;;3.83;;
71464;SDS011;59274;49.874;9.154;2023-10-19T06:45:11;7.70;;;3.95;;
71464;SDS011;59274;49.874;9.154;2023-10-19T06:47:41;8.07;;;3.67;;
71464;SDS011;59274;49.874;9.154;2023-10-19T06:50:14;6.88;;;3.58;;
71464;SDS011;59274;49.874;9.154;2023-10-19T06:52:45;10.90;;;4.27;;
71464;SDS011;59274;49.874;9.154;2023-10-19T06:55:14;8.90;;;4.10;;
71464;SDS011;59274;49.874;9.154;2023-10-19T06:57:51;6.90;;;3.35;;
71464;SDS011;59274;49.874;9.154;2023-10-19T07:00:19;8.00;;;3.95;;
71464;SDS011;59274;49.874;9.154;2023-10-19T07:02:49;7.32;;;3.97;;
71464;SDS011;59274;49.874;9.154;2023-10-19T07:05:21;7.67;;;4.00;;
71464;SDS011;59274;49.874;9.154;2023-10-19T07:07:49;7.88;;;3.90;;
71464;SDS011;59274;49.874;9.154;2023-10-19T07:10:16;8.07;;;4.20;;
71464;SDS011;59274;49.874;9.154;2023-10-19T07:12:43;7.20;;;3.10;;
71464;SDS011;59274;49.874;9.154;2023-10-19T07:15:11;5.80;;;3.57;;
71464;SDS011;59274;49.874;9.154;2023-10-19T07:17:41;5.55;;;3.30;;
71464;SDS011;59274;49.874;9.154;2023-10-19T07:20:08;7.13;;;2.88;;
71464;SDS011;59274;49.874;9.154;2023-10-19T07:22:54;6.57;;;2.92;;
71464;SDS011;59274;49.874;9.154;2023-10-19T07:25:21;6.10;;;3.03;;
71464;SDS011;59274;49.874;9.154;2023-10-19T07:27:48;5.37;;;2.73;;
71464;SDS011;59274;49.874;9.154;2023-10-19T07:30:15;6.10;;;3.15;;
71464;SDS011;59274;49.874;9.154;2023-10-19T07:32:45;6.05;;;2.97;;
71464;SDS011;59274;49.874;9.154;2023-10-19T07:35:11;8.45;;;3.00;;
71464;SDS011;59274;49.874;9.154;2023-10-19T07:37:37;8.20;;;3.10;;
71464;SDS011;59274;49.874;9.154;2023-10-19T07:40:03;5.13;;;2.67;;
71464;SDS011;59274;49.874;9.154;2023-10-19T07:42:30;6.53;;;3.67;;
71464;SDS011;59274;49.874;9.154;2023-10-19T07:44:57;5.82;;;3.55;;
71464;SDS011;59274;49.874;9.154;2023-10-19T07:47:24;5.60;;;2.67;;
71464;SDS011;59274;49.874;9.154;2023-10-19T07:49:50;6.90;;;3.23;;
71464;SDS011;59274;49.874;9.154;2023-10-19T07:52:17;7.25;;;3.03;;
71464;SDS011;59274;49.874;9.154;2023-10-19T07:54:42;5.40;;;2.60;;
71464;SDS011;59274;49.874;9.154;2023-10-19T07:57:08;6.88;;;2.88;;
71464;SDS011;59274;49.874;9.154;2023-10-19T07:59:33;7.77;;;2.97;;
71464;SDS011;59274;49.874;9.154;2023-10-19T08:01:59;5.95;;;2.92;;
71464;SDS011;59274;49.874;9.154;2023-10-19T08:04:29;6.40;;;3.03;;
71464;SDS011;59274;49.874;9.154;2023-10-19T08:06:55;4.55;;;2.47;;
71464;SDS011;59274;49.874;9.154;2023-10-19T08:09:22;9.80;;;3.67;;
71464;SDS011;59274;49.874;9.154;2023-10-19T08:11:48;6.72;;;2.72;;
71464;SDS011;59274;49.874;9.154;2023-10-19T08:14:14;7.03;;;3.00;;
71464;SDS011;59274;49.874;9.154;2023-10-19T08:16:40;7.85;;;2.97;;
71464;SDS011;59274;49.874;9.154;2023-10-19T08:19:07;6.30;;;2.80;;
71464;SDS011;59274;49.874;9.154;2023-10-19T08:21:33;7.93;;;2.97;;
71464;SDS011;59274;49.874;9.154;2023-10-19T08:23:59;4.65;;;2.35;;
71464;SDS011;59274;49.874;9.154;2023-10-19T08:26:30;5.10;;;2.53;;
71464;SDS011;59274;49.874;9.154;2023-10-19T08:28:56;5.85;;;2.92;;
71464;SDS011;59274;49.874;9.154;2023-10-19T08:31:25;5.73;;;2.93;;
71464;SDS011;59274;49.874;9.154;2023-10-19T08:33:50;5.97;;;2.65;;
71464;SDS011;59274;49.874;9.154;2023-10-19T08:36:19;6.37;;;3.10;;
71464;SDS011;59274;49.874;9.154;2023-10-19T08:38:45;4.85;;;2.63;;
71464;SDS011;59274;49.874;9.154;2023-10-19T08:41:12;6.88;;;3.17;;
71464;SDS011;59274;49.874;9.154;2023-10-19T08:43:40;6.35;;;3.17;;
71464;SDS011;59274;49.874;9.154;2023-10-19T08:46:06;7.17;;;3.53;;
71464;SDS011;59274;49.874;9.154;2023-10-19T08:48:35;5.60;;;3.10;;
71464;SDS011;59274;49.874;9.154;2023-10-19T08:51:08;7.72;;;3.22;;
71464;SDS011;59274;49.874;9.154;2023-10-19T08:53:36;6.00;;;3.03;;
71464;SDS011;59274;49.874;9.154;2023-10-19T08:56:05;8.35;;;3.15;;
71464;SDS011;59274;49.874;9.154;2023-10-19T08:58:32;6.57;;;3.10;;
71464;SDS011;59274;49.874;9.154;2023-10-19T09:00:57;9.13;;;2.53;;
71464;SDS011;59274;49.874;9.154;2023-10-19T09:03:31;6.87;;;3.20;;
71464;SDS011;59274;49.874;9.154;2023-10-19T09:05:57;6.00;;;3.30;;
71464;SDS011;59274;49.874;9.154;2023-10-19T09:08:22;7.13;;;3.43;;
71464;SDS011;59274;49.874;9.154;2023-10-19T09:10:48;7.03;;;3.63;;
71464;SDS011;59274;49.874;9.154;2023-10-19T09:13:16;6.53;;;3.47;;
71464;SDS011;59274;49.874;9.154;2023-10-19T09:15:43;7.68;;;3.75;;
71464;SDS011;59274;49.874;9.154;2023-10-19T09:20:39;8.27;;;4.18;;
71464;SDS011;59274;49.874;9.154;2023-10-19T09:23:06;7.00;;;3.33;;
71464;SDS011;59274;49.874;9.154;2023-10-19T09:25:32;7.03;;;3.57;;
71464;SDS011;59274;49.874;9.154;2023-10-19T09:28:00;5.40;;;2.50;;
71464;SDS011;59274;49.874;9.154;2023-10-19T09:30:27;6.45;;;3.63;;
71464;SDS011;59274;49.874;9.154;2023-10-19T09:32:56;6.50;;;2.85;;
71464;SDS011;59274;49.874;9.154;2023-10-19T09:35:24;5.75;;;2.75;;
71464;SDS011;59274;49.874;9.154;2023-10-19T09:37:53;5.75;;;2.72;;
71464;SDS011;59274;49.874;9.154;2023-10-19T09:40:19;6.68;;;3.50;;
71464;SDS011;59274;49.874;9.154;2023-10-19T09:42:46;8.27;;;3.25;;
71464;SDS011;59274;49.874;9.154;2023-10-19T09:45:16;6.93;;;3.25;;
71464;SDS011;59274;49.874;9.154;2023-10-19T09:47:46;5.65;;;2.83;;
71464;SDS011;59274;49.874;9.154;2023-10-19T09:50:15;7.72;;;3.53;;
71464;SDS011;59274;49.874;9.154;2023-10-19T09:52:41;6.32;;;3.22;;
71464;SDS011;59274;49.874;9.154;2023-10-19T09:55:11;5.43;;;3.40;;
71464;SDS011;59274;49.874;9.154;2023-10-19T09:57:50;6.75;;;3.60;;
71464;SDS011;59274;49.874;9.154;2023-10-19T10:00:21;6.13;;;2.30;;
71464;SDS011;59274;49.874;9.154;2023-10-19T10:02:50;7.10;;;3.08;;
71464;SDS011;59274;49.874;9.154;2023-10-19T10:05:49;7.40;;;3.03;;
71464;SDS011;59274;49.874;9.154;2023-10-19T10:10:46;8.07;;;3.40;;
71464;SDS011;59274;49.874;9.154;2023-10-19T10:15:53;6.78;;;2.88;;
71464;SDS011;59274;49.874;9.154;2023-10-19T10:18:20;8.93;;;3.53;;
71464;SDS011;59274;49.874;9.154;2023-10-19T10:20:45;6.20;;;3.00;;
71464;SDS011;59274;49.874;9.154;2023-10-19T10:23:21;8.32;;;3.10;;
71464;SDS011;59274;49.874;9.154;2023-10-19T10:25:57;5.90;;;2.95;;
71464;SDS011;59274;49.874;9.154;2023-10-19T10:28:23;5.27;;;2.70;;
71464;SDS011;59274;49.874;9.154;2023-10-19T10:33:40;6.63;;;3.17;;
71464;SDS011;59274;49.874;9.154;2023-10-19T10:36:19;4.30;;;2.42;;
71464;SDS011;59274;49.874;9.154;2023-10-19T10:38:50;5.07;;;2.47;;
71464;SDS011;59274;49.874;9.154;2023-10-19T10:41:22;7.60;;;3.10;;
71464;SDS011;59274;49.874;9.154;2023-10-19T10:43:55;5.18;;;2.40;;
71464;SDS011;59274;49.874;9.154;2023-10-19T10:46:22;6.18;;;2.72;;
71464;SDS011;59274;49.874;9.154;2023-10-19T10:48:48;4.13;;;2.22;;
71464;SDS011;59274;49.874;9.154;2023-10-19T10:51:17;5.17;;;2.43;;
71464;SDS011;59274;49.874;9.154;2023-10-19T10:53:47;3.90;;;2.00;;
71464;SDS011;59274;49.874;9.154;2023-10-19T10:56:14;3.63;;;2.10;;
71464;SDS011;59274;49.874;9.154;2023-10-19T10:58:39;3.47;;;1.70;;
71464;SDS011;59274;49.874;9.154;2023-10-19T11:01:06;3.83;;;1.90;;
71464;SDS011;59274;49.874;9.154;2023-10-19T11:03:31;8.60;;;1.93;;
71464;SDS011;59274;49.874;9.154;2023-10-19T11:06:04;4.55;;;2.15;;
71464;SDS011;59274;49.874;9.154;2023-10-19T11:08:33;5.68;;;2.03;;
71464;SDS011;59274;49.874;9.154;2023-10-19T11:11:06;4.87;;;1.87;;
71464;SDS011;59274;49.874;9.154;2023-10-19T11:13:36;4.22;;;1.92;;
71464;SDS011;59274;49.874;9.154;2023-10-19T11:16:04;4.30;;;2.40;;
71464;SDS011;59274;49.874;9.154;2023-10-19T11:18:40;4.13;;;1.70;;
71464;SDS011;59274;49.874;9.154;2023-10-19T11:21:10;3.47;;;2.13;;
71464;SDS011;59274;49.874;9.154;2023-10-19T11:23:47;3.47;;;1.73;;
71464;SDS011;59274;49.874;9.154;2023-10-19T11:26:15;2.70;;;1.60;;
71464;SDS011;59274;49.874;9.154;2023-10-19T11:28:42;3.88;;;1.52;;
71464;SDS011;59274;49.874;9.154;2023-10-19T11:31:18;3.17;;;1.77;;
71464;SDS011;59274;49.874;9.154;2023-10-19T11:33:45;4.10;;;1.95;;
71464;SDS011;59274;49.874;9.154;2023-10-19T11:36:11;2.90;;;1.40;;
71464;SDS011;59274;49.874;9.154;2023-10-19T11:38:41;2.03;;;1.30;;
71464;SDS011;59274;49.874;9.154;2023-10-19T11:41:08;3.38;;;1.77;;
71464;SDS011;59274;49.874;9.154;2023-10-19T11:43:34;4.20;;;1.80;;
71464;SDS011;59274;49.874;9.154;2023-10-19T11:46:00;7.00;;;1.85;;
71464;SDS011;59274;49.874;9.154;2023-10-19T11:48:26;4.95;;;1.95;;
71464;SDS011;59274;49.874;9.154;2023-10-19T11:50:51;4.20;;;1.73;;
71464;SDS011;59274;49.874;9.154;2023-10-19T11:53:18;3.22;;;1.85;;
71464;SDS011;59274;49.874;9.154;2023-10-19T11:55:43;4.73;;;1.60;;
71464;SDS011;59274;49.874;9.154;2023-10-19T11:58:09;3.25;;;1.77;;
71464;SDS011;59274;49.874;9.154;2023-10-19T12:00:39;2.58;;;1.60;;
71464;SDS011;59274;49.874;9.154;2023-10-19T12:03:04;2.67;;;1.80;;
71464;SDS011;59274;49.874;9.154;2023-10-19T12:05:31;2.63;;;1.67;;
71464;SDS011;59274;49.874;9.154;2023-10-19T12:07:57;3.08;;;1.65;;
71464;SDS011;59274;49.874;9.154;2023-10-19T12:10:22;2.97;;;1.53;;
71464;SDS011;59274;49.874;9.154;2023-10-19T12:12:57;5.22;;;1.70;;
71464;SDS011;59274;49.874;9.154;2023-10-19T12:15:23;5.93;;;1.90;;
71464;SDS011;59274;49.874;9.154;2023-10-19T12:17:50;2.65;;;1.58;;
71464;SDS011;59274;49.874;9.154;2023-10-19T12:20:16;2.97;;;1.13;;
71464;SDS011;59274;49.874;9.154;2023-10-19T12:22:41;5.90;;;1.83;;
71464;SDS011;59274;49.874;9.154;2023-10-19T12:25:07;3.13;;;1.60;;
71464;SDS011;59274;49.874;9.154;2023-10-19T12:27:33;3.67;;;1.77;;
71464;SDS011;59274;49.874;9.154;2023-10-19T12:29:58;3.53;;;1.73;;
71464;SDS011;59274;49.874;9.154;2023-10-19T12:32:24;3.37;;;1.90;;
71464;SDS011;59274;49.874;9.154;2023-10-19T12:34:51;3.88;;;1.80;;
71464;SDS011;59274;49.874;9.154;2023-10-19T12:37:22;3.17;;;1.60;;
71464;SDS011;59274;49.874;9.154;2023-10-19T12:39:49;9.02;;;3.58;;
71464;SDS011;59274;49.874;9.154;2023-10-19T12:42:17;3.47;;;1.70;;
71464;SDS011;59274;49.874;9.154;2023-10-19T12:44:43;3.45;;;1.70;;
71464;SDS011;59274;49.874;9.154;2023-10-19T12:47:08;2.63;;;1.57;;
71464;SDS011;59274;49.874;9.154;2023-10-19T12:49:36;4.57;;;2.05;;
71464;SDS011;59274;49.874;9.154;2023-10-19T12:52:02;4.15;;;1.85;;
71464;SDS011;59274;49.874;9.154;2023-10-19T12:54:29;3.93;;;1.83;;
71464;SDS011;59274;49.874;9.154;2023-10-19T12:56:54;2.35;;;1.27;;
71464;SDS011;59274;49.874;9.154;2023-10-19T12:59:20;3.23;;;1.80;;
71464;SDS011;59274;49.874;9.154;2023-10-19T13:01:45;5.47;;;1.98;;
71464;SDS011;59274;49.874;9.154;2023-10-19T13:04:14;2.73;;;1.50;;
71464;SDS011;59274;49.874;9.154;2023-10-19T13:06:43;2.97;;;1.55;;
71464;SDS011;59274;49.874;9.154;2023-10-19T13:09:09;4.95;;;1.95;;
71464;SDS011;59274;49.874;9.154;2023-10-19T13:11:35;5.47;;;1.85;;
71464;SDS011;59274;49.874;9.154;2023-10-19T13:14:00;5.40;;;1.70;;
71464;SDS011;59274;49.874;9.154;2023-10-19T13:16:26;5.67;;;2.17;;
71464;SDS011;59274;49.874;9.154;2023-10-19T13:18:53;2.83;;;1.70;;
71464;SDS011;59274;49.874;9.154;2023-10-19T13:21:19;4.35;;;2.40;;
71464;SDS011;59274;49.874;9.154;2023-10-19T13:23:51;3.97;;;2.13;;
71464;SDS011;59274;49.874;9.154;2023-10-19T13:26:16;3.22;;;1.98;;
71464;SDS011;59274;49.874;9.154;2023-10-19T13:28:42;5.50;;;1.90;;
71464;SDS011;59274;49.874;9.154;2023-10-19T13:31:09;6.97;;;1.95;;
71464;SDS011;59274;49.874;9.154;2023-10-19T13:33:34;3.22;;;1.88;;
71464;SDS011;59274;49.874;9.154;2023-10-19T13:36:00;4.13;;;2.07;;
71464;SDS011;59274;49.874;9.154;2023-10-19T13:38:34;3.97;;;1.80;;
71464;SDS011;59274;49.874;9.154;2023-10-19T13:41:02;5.00;;;2.40;;
71464;SDS011;59274;49.874;9.154;2023-10-19T13:43:31;5.07;;;2.20;;
71464;SDS011;59274;49.874;9.154;2023-10-19T13:45:56;4.63;;;2.30;;
71464;SDS011;59274;49.874;9.154;2023-10-19T13:48:22;5.80;;;2.15;;
71464;SDS011;59274;49.874;9.154;2023-10-19T13:50:48;6.57;;;2.50;;
71464;SDS011;59274;49.874;9.154;2023-10-19T13:53:15;6.38;;;2.63;;
71464;SDS011;59274;49.874;9.154;2023-10-19T13:55:41;5.50;;;2.08;;
71464;SDS011;59274;49.874;9.154;2023-10-19T13:58:07;5.10;;;2.28;;
71464;SDS011;59274;49.874;9.154;2023-10-19T14:00:34;4.65;;;2.30;;
71464;SDS011;59274;49.874;9.154;2023-10-19T14:03:05;4.37;;;2.10;;
71464;SDS011;59274;49.874;9.154;2023-10-19T14:05:38;4.32;;;1.77;;
71464;SDS011;59274;49.874;9.154;2023-10-19T14:08:14;5.47;;;2.60;;
71464;SDS011;59274;49.874;9.154;2023-10-19T14:10:41;4.45;;;2.22;;
71464;SDS011;59274;49.874;9.154;2023-10-19T14:13:07;4.17;;;2.10;;
71464;SDS011;59274;49.874;9.154;2023-10-19T14:15:33;4.95;;;2.20;;
71464;SDS011;59274;49.874;9.154;2023-10-19T14:17:59;3.57;;;2.03;;
71464;SDS011;59274;49.874;9.154;2023-10-19T14:20:25;10.15;;;2.53;;
71464;SDS011;59274;49.874;9.154;2023-10-19T14:22:54;3.90;;;2.15;;
71464;SDS011;59274;49.874;9.154;2023-10-19T14:25:20;6.82;;;2.90;;
71464;SDS011;59274;49.874;9.154;2023-10-19T14:27:47;7.28;;;2.63;;
71464;SDS011;59274;49.874;9.154;2023-10-19T14:30:14;5.93;;;3.22;;
71464;SDS011;59274;49.874;9.154;2023-10-19T14:32:41;5.75;;;2.35;;
71464;SDS011;59274;49.874;9.154;2023-10-19T14:35:11;5.82;;;2.80;;
71464;SDS011;59274;49.874;9.154;2023-10-19T14:37:40;6.65;;;2.65;;
71464;SDS011;59274;49.874;9.154;2023-10-19T14:40:10;6.13;;;2.92;;
71464;SDS011;59274;49.874;9.154;2023-10-19T14:42:40;8.52;;;3.00;;
71464;SDS011;59274;49.874;9.154;2023-10-19T14:47:37;3.67;;;2.03;;
71464;SDS011;59274;49.874;9.154;2023-10-19T14:50:03;7.18;;;3.15;;
71464;SDS011;59274;49.874;9.154;2023-10-19T14:52:29;5.05;;;2.30;;
71464;SDS011;59274;49.874;9.154;2023-10-19T14:54:55;4.25;;;2.25;;
71464;SDS011;59274;49.874;9.154;2023-10-19T14:57:21;4.80;;;2.73;;
71464;SDS011;59274;49.874;9.154;2023-10-19T14:59:47;5.95;;;2.20;;
71464;SDS011;59274;49.874;9.154;2023-10-19T15:02:13;5.35;;;2.47;;
71464;SDS011;59274;49.874;9.154;2023-10-19T15:04:39;3.60;;;1.80;;
71464;SDS011;59274;49.874;9.154;2023-10-19T15:07:04;5.78;;;2.40;;
71464;SDS011;59274;49.874;9.154;2023-10-19T15:09:30;5.07;;;2.30;;
71464;SDS011;59274;49.874;9.154;2023-10-19T15:11:56;8.30;;;3.88;;
71464;SDS011;59274;49.874;9.154;2023-10-19T15:14:22;4.60;;;2.20;;